Taiki Maru — JI3464 — position and weather

sailwx.info

Track history (hours):
 
Tides and Currents Weather Stations Pressure Air Temp Water Temp Dewpoint Dewpoint Depression Visibility Wind Speed Wind Dir Waves Ship Positions

Taiki Maru

Last reported at 2015-Jan-24 20:33 UTC. Time now 2015-Jan-26 00:22 UTC.
Position N 34°47' E 139°13'.

Length 93 m; draft 5.2 m.

Type: Cargo ship. MMSI: 431300622.

Date/timePositionNaut miles runAvg speedWind from/ knotsBaromVisibWave heightAir tempDewpointWater temp
2015-Jan-24 20:33N 34°47' E 139°13'1914.3
2015-Jan-24 19:15N 34°60' E 139°30'1014.6
2015-Jan-24 18:33N 35°06' E 139°40'1212.1
2015-Jan-24 17:33N 35°17' E 139°45'1212.1
2015-Jan-24 16:33N 35°28' E 139°40'1 0.6
2015-Jan-24 15:33N 35°29' E 139°40'0 0.0
2015-Jan-24 14:32N 35°29' E 139°40'0 0.0
2015-Jan-24 13:29N 35°29' E 139°40'0 0.0
2015-Jan-24 12:32N 35°29' E 139°40'0 0.0
2015-Jan-24 11:32N 35°29' E 139°40'0 0.0
2015-Jan-24 10:29N 35°29' E 139°40'0 0.0
2015-Jan-24 09:32N 35°29' E 139°40'0 0.0
2015-Jan-24 08:32N 35°29' E 139°40'2 2.0
2015-Jan-24 07:33N 35°27' E 139°41'4 3.9
2015-Jan-24 06:33N 35°24' E 139°44'0 0.0
2015-Jan-24 05:33N 35°24' E 139°44'6 5.5
2015-Jan-24 04:33N 35°18' E 139°44'1111.0
2015-Jan-24 03:33N 35°07' E 139°45'1212.0
2015-Jan-24 02:33N 34°59' E 139°35'232 9.9
2015-Jan-23 03:14N 34°05' E 135°01'913.1
2015-Jan-23 02:33N 34°13' E 135°04'3 2.9
2015-Jan-23 01:33N 34°14' E 135°08'0 0.0
2015-Jan-23 00:32N 34°14' E 135°08'0 0.0
2015-Jan-22 23:32N 34°14' E 135°08'0 0.0
2015-Jan-22 22:32N 34°14' E 135°08'0 0.0
2015-Jan-22 21:32N 34°14' E 135°08'2 1.9
2015-Jan-22 20:33N 34°14' E 135°06'1110.8
2015-Jan-22 19:33N 34°04' E 135°00'  
2015-Jan-20 12:16N 34°49' E 139°15'2414.2
2015-Jan-20 10:34N 35°03' E 139°38'1313.3
2015-Jan-20 09:34N 35°15' E 139°46'1110.9
2015-Jan-20 08:33N 35°26' E 139°45'1210.9
2015-Jan-20 07:29N 35°28' E 139°59'4 0.5
2015-Jan-19 23:29N 35°29' E 139°55'1111.7
2015-Jan-19 22:34N 35°26' E 139°42'3 2.9
2015-Jan-19 21:34N 35°29' E 139°40'0 0.0
2015-Jan-19 20:32N 35°29' E 139°40'0 0.0
2015-Jan-19 19:32N 35°29' E 139°40'0 0.0
2015-Jan-19 18:32N 35°29' E 139°40'0 0.0
2015-Jan-19 17:32N 35°29' E 139°40'0 0.0
2015-Jan-19 16:32N 35°29' E 139°40'0 0.0
2015-Jan-19 15:32N 35°29' E 139°40'0 0.0
2015-Jan-19 14:29N 35°29' E 139°40'0 0.0
2015-Jan-19 13:29N 35°29' E 139°40'0 0.0
2015-Jan-19 12:32N 35°29' E 139°40'0 0.0
2015-Jan-19 11:32N 35°29' E 139°40'0 0.0
2015-Jan-19 10:32N 35°29' E 139°40'0 0.0
2015-Jan-19 09:32N 35°29' E 139°40'0 0.0
2015-Jan-19 08:32N 35°29' E 139°40'0 0.0
2015-Jan-19 07:32N 35°29' E 139°40'0 0.0
2015-Jan-19 06:29N 35°29' E 139°40'0 0.0
2015-Jan-19 05:32N 35°29' E 139°40'0 0.0
2015-Jan-19 04:32N 35°29' E 139°40'0 0.0
2015-Jan-19 03:32N 35°29' E 139°40'1 1.5
2015-Jan-19 02:33N 35°27' E 139°40'2 1.8
2015-Jan-19 01:31N 35°26' E 139°42'0 0.0
2015-Jan-19 00:28N 35°26' E 139°42'0 0.0
2015-Jan-18 23:31N 35°26' E 139°42'0 0.0
2015-Jan-18 22:31N 35°26' E 139°42'0 0.0
2015-Jan-18 21:31N 35°26' E 139°42'0 0.0
2015-Jan-18 20:31N 35°26' E 139°42'0 0.1
2015-Jan-18 19:31N 35°26' E 139°42'0 0.0
2015-Jan-18 18:31N 35°26' E 139°42'0 0.0
2015-Jan-18 17:31N 35°26' E 139°42'0 0.0
2015-Jan-18 16:31N 35°26' E 139°42'0 0.0
2015-Jan-18 15:28N 35°26' E 139°42'0 0.0
2015-Jan-18 14:31N 35°26' E 139°42'0 0.1
2015-Jan-18 13:31N 35°26' E 139°42'0 0.1
2015-Jan-18 12:31N 35°26' E 139°42'0 0.0
2015-Jan-18 11:31N 35°26' E 139°42'0 0.0
2015-Jan-18 10:31N 35°26' E 139°42'0 0.0
2015-Jan-18 09:31N 35°26' E 139°42'0 0.1
2015-Jan-18 08:31N 35°26' E 139°42'0 0.1
2015-Jan-18 07:31N 35°26' E 139°42'0 0.0
2015-Jan-18 06:31N 35°26' E 139°42'0 0.0
2015-Jan-18 05:31N 35°26' E 139°42'0 0.0
2015-Jan-18 04:31N 35°26' E 139°42'0 0.0
2015-Jan-18 03:31N 35°26' E 139°42'0 0.0
2015-Jan-18 02:31N 35°26' E 139°42'0 0.0
2015-Jan-18 01:31N 35°26' E 139°42'0 0.1
2015-Jan-18 00:31N 35°26' E 139°42'0 0.0
2015-Jan-17 23:31N 35°26' E 139°42'0 0.0
2015-Jan-17 22:31N 35°26' E 139°42'0 0.0
2015-Jan-17 21:31N 35°26' E 139°42'0 0.0
2015-Jan-17 20:28N 35°26' E 139°42'1 1.3
2015-Jan-17 19:33N 35°25' E 139°43'1111.3
2015-Jan-17 18:33N 35°14' E 139°47'1211.8
2015-Jan-17 17:33N 35°03' E 139°42'1312.4
2015-Jan-17 16:30N 34°56' E 139°29'233 5.0
2015-Jan-15 18:06N 34°01' E 134°55'813.8
2015-Jan-15 17:34N 34°09' E 134°56'1413.4
2015-Jan-15 16:31N 34°22' E 135°00'1414.3
2015-Jan-15 15:33N 34°31' E 135°13'7 6.8
2015-Jan-15 14:29N 34°36' E 135°19'0 0.0
2015-Jan-15 13:29N 34°36' E 135°19'0 0.0
2015-Jan-15 12:29N 34°36' E 135°19'0 0.1
2015-Jan-15 11:29N 34°36' E 135°19'3 3.0
2015-Jan-15 10:33N 34°38' E 135°22'4 4.4
2015-Jan-15 09:33N 34°40' E 135°27'0 0.0
2015-Jan-15 08:31N 34°40' E 135°27'0 0.0
2015-Jan-15 07:31N 34°40' E 135°27'0 0.0
2015-Jan-15 06:31N 34°40' E 135°27'0 0.0
2015-Jan-15 05:31N 34°40' E 135°27'0 0.0
2015-Jan-15 04:07N 34°40' E 135°27'0 0.0
2015-Jan-15 03:31N 34°40' E 135°27'  
Track history (hours):
 
Tides and Currents Weather Stations Pressure Air Temp Water Temp Dewpoint Dewpoint Depression Visibility Wind Speed Wind Dir Waves Ship Positions

Taiki Maru

Last reported at 2015-Jan-24 20:33 UTC. Time now 2015-Jan-26 00:22 UTC.
Position N 34°47' E 139°13'.

Length 93 m; draft 5.2 m.

Type: Cargo ship. MMSI: 431300622.

Date/timePositionNaut miles runAvg speedWind from/ knotsBaromVisibWave heightAir tempDewpointWater temp
2015-Jan-24 20:33N 34°47' E 139°13'1914.3
2015-Jan-24 19:15N 34°60' E 139°30'1014.6
2015-Jan-24 18:33N 35°06' E 139°40'1212.1
2015-Jan-24 17:33N 35°17' E 139°45'1212.1
2015-Jan-24 16:33N 35°28' E 139°40'1 0.6
2015-Jan-24 15:33N 35°29' E 139°40'0 0.0
2015-Jan-24 14:32N 35°29' E 139°40'0 0.0
2015-Jan-24 13:29N 35°29' E 139°40'0 0.0
2015-Jan-24 12:32N 35°29' E 139°40'0 0.0
2015-Jan-24 11:32N 35°29' E 139°40'0 0.0
2015-Jan-24 10:29N 35°29' E 139°40'0 0.0
2015-Jan-24 09:32N 35°29' E 139°40'0 0.0
2015-Jan-24 08:32N 35°29' E 139°40'2 2.0
2015-Jan-24 07:33N 35°27' E 139°41'4 3.9
2015-Jan-24 06:33N 35°24' E 139°44'0 0.0
2015-Jan-24 05:33N 35°24' E 139°44'6 5.5
2015-Jan-24 04:33N 35°18' E 139°44'1111.0
2015-Jan-24 03:33N 35°07' E 139°45'1212.0
2015-Jan-24 02:33N 34°59' E 139°35'232 9.9
2015-Jan-23 03:14N 34°05' E 135°01'913.1
2015-Jan-23 02:33N 34°13' E 135°04'3 2.9
2015-Jan-23 01:33N 34°14' E 135°08'0 0.0
2015-Jan-23 00:32N 34°14' E 135°08'0 0.0
2015-Jan-22 23:32N 34°14' E 135°08'0 0.0
2015-Jan-22 22:32N 34°14' E 135°08'0 0.0
2015-Jan-22 21:32N 34°14' E 135°08'2 1.9
2015-Jan-22 20:33N 34°14' E 135°06'1110.8
2015-Jan-22 19:33N 34°04' E 135°00'  
2015-Jan-20 12:16N 34°49' E 139°15'2414.2
2015-Jan-20 10:34N 35°03' E 139°38'1313.3
2015-Jan-20 09:34N 35°15' E 139°46'1110.9
2015-Jan-20 08:33N 35°26' E 139°45'1210.9
2015-Jan-20 07:29N 35°28' E 139°59'4 0.5
2015-Jan-19 23:29N 35°29' E 139°55'1111.7
2015-Jan-19 22:34N 35°26' E 139°42'3 2.9
2015-Jan-19 21:34N 35°29' E 139°40'0 0.0
2015-Jan-19 20:32N 35°29' E 139°40'0 0.0
2015-Jan-19 19:32N 35°29' E 139°40'0 0.0
2015-Jan-19 18:32N 35°29' E 139°40'0 0.0
2015-Jan-19 17:32N 35°29' E 139°40'0 0.0
2015-Jan-19 16:32N 35°29' E 139°40'0 0.0
2015-Jan-19 15:32N 35°29' E 139°40'0 0.0
2015-Jan-19 14:29N 35°29' E 139°40'0 0.0
2015-Jan-19 13:29N 35°29' E 139°40'0 0.0
2015-Jan-19 12:32N 35°29' E 139°40'0 0.0
2015-Jan-19 11:32N 35°29' E 139°40'0 0.0
2015-Jan-19 10:32N 35°29' E 139°40'0 0.0
2015-Jan-19 09:32N 35°29' E 139°40'0 0.0
2015-Jan-19 08:32N 35°29' E 139°40'0 0.0
2015-Jan-19 07:32N 35°29' E 139°40'0 0.0
2015-Jan-19 06:29N 35°29' E 139°40'0 0.0
2015-Jan-19 05:32N 35°29' E 139°40'0 0.0
2015-Jan-19 04:32N 35°29' E 139°40'0 0.0
2015-Jan-19 03:32N 35°29' E 139°40'1 1.5
2015-Jan-19 02:33N 35°27' E 139°40'2 1.8
2015-Jan-19 01:31N 35°26' E 139°42'0 0.0
2015-Jan-19 00:28N 35°26' E 139°42'0 0.0
2015-Jan-18 23:31N 35°26' E 139°42'0 0.0
2015-Jan-18 22:31N 35°26' E 139°42'0 0.0
2015-Jan-18 21:31N 35°26' E 139°42'0 0.0
2015-Jan-18 20:31N 35°26' E 139°42'0 0.1
2015-Jan-18 19:31N 35°26' E 139°42'0 0.0
2015-Jan-18 18:31N 35°26' E 139°42'0 0.0
2015-Jan-18 17:31N 35°26' E 139°42'0 0.0
2015-Jan-18 16:31N 35°26' E 139°42'0 0.0
2015-Jan-18 15:28N 35°26' E 139°42'0 0.0
2015-Jan-18 14:31N 35°26' E 139°42'0 0.1
2015-Jan-18 13:31N 35°26' E 139°42'0 0.1
2015-Jan-18 12:31N 35°26' E 139°42'0 0.0
2015-Jan-18 11:31N 35°26' E 139°42'0 0.0
2015-Jan-18 10:31N 35°26' E 139°42'0 0.0
2015-Jan-18 09:31N 35°26' E 139°42'0 0.1
2015-Jan-18 08:31N 35°26' E 139°42'0 0.1
2015-Jan-18 07:31N 35°26' E 139°42'0 0.0
2015-Jan-18 06:31N 35°26' E 139°42'0 0.0
2015-Jan-18 05:31N 35°26' E 139°42'0 0.0
2015-Jan-18 04:31N 35°26' E 139°42'0 0.0
2015-Jan-18 03:31N 35°26' E 139°42'0 0.0
2015-Jan-18 02:31N 35°26' E 139°42'0 0.0
2015-Jan-18 01:31N 35°26' E 139°42'0 0.1
2015-Jan-18 00:31N 35°26' E 139°42'0 0.0
2015-Jan-17 23:31N 35°26' E 139°42'0 0.0
2015-Jan-17 22:31N 35°26' E 139°42'0 0.0
2015-Jan-17 21:31N 35°26' E 139°42'0 0.0
2015-Jan-17 20:28N 35°26' E 139°42'1 1.3
2015-Jan-17 19:33N 35°25' E 139°43'1111.3
2015-Jan-17 18:33N 35°14' E 139°47'1211.8
2015-Jan-17 17:33N 35°03' E 139°42'1312.4
2015-Jan-17 16:30N 34°56' E 139°29'233 5.0
2015-Jan-15 18:06N 34°01' E 134°55'813.8
2015-Jan-15 17:34N 34°09' E 134°56'1413.4
2015-Jan-15 16:31N 34°22' E 135°00'1414.3
2015-Jan-15 15:33N 34°31' E 135°13'7 6.8
2015-Jan-15 14:29N 34°36' E 135°19'0 0.0
2015-Jan-15 13:29N 34°36' E 135°19'0 0.0
2015-Jan-15 12:29N 34°36' E 135°19'0 0.1
2015-Jan-15 11:29N 34°36' E 135°19'3 3.0
2015-Jan-15 10:33N 34°38' E 135°22'4 4.4
2015-Jan-15 09:33N 34°40' E 135°27'0 0.0
2015-Jan-15 08:31N 34°40' E 135°27'0 0.0
2015-Jan-15 07:31N 34°40' E 135°27'0 0.0
2015-Jan-15 06:31N 34°40' E 135°27'0 0.0
2015-Jan-15 05:31N 34°40' E 135°27'0 0.0
2015-Jan-15 04:07N 34°40' E 135°27'0 0.0
2015-Jan-15 03:31N 34°40' E 135°27'  

Dump ship's entire track history